Time;durP1;ratioP1;P1;durP2;ratioP2;P2;SDS_P1;SDS_P2;PMS_P1;PMS_P2;Temp;Humidity;BMP_temperature;BMP_pressure;BME280_temperature;BME280_humidity;BME280_pressure;Samples;Min_cycle;Max_cycle;Signal;HPM_P1;HPM_P2
2022/04/06 00:00:11;;;;;;;6.70;5.60;;;;;;;8.67;100.00;99379.13;5070923;28;20648;-73
2022/04/06 00:02:40;;;;;;;3.63;3.33;;;;;;;8.64;100.00;99378.66;5071225;28;20692;-72
2022/04/06 00:05:09;;;;;;;6.27;5.60;;;;;;;8.64;100.00;99375.91;5070800;28;20206;-73
2022/04/06 00:07:39;;;;;;;6.83;5.53;;;;;;;8.65;100.00;99384.88;5070793;28;20681;-73
2022/04/06 00:10:05;;;;;;;14.03;6.13;;;;;;;8.63;100.00;99368.88;5070948;28;20308;-72
2022/04/06 00:12:30;;;;;;;4.23;3.23;;;;;;;8.64;100.00;99386.00;5070754;28;20186;-74
2022/04/06 00:14:56;;;;;;;5.53;3.97;;;;;;;8.64;100.00;99377.84;5069700;28;20175;-72
2022/04/06 00:17:24;;;;;;;11.17;8.40;;;;;;;8.64;100.00;99362.31;5070668;28;20177;-72
2022/04/06 00:19:49;;;;;;;10.20;9.23;;;;;;;8.66;100.00;99381.03;5069520;28;20170;-73
2022/04/06 00:22:14;;;;;;;11.67;7.17;;;;;;;8.68;100.00;99380.72;5070849;28;20180;-73
2022/04/06 00:24:40;;;;;;;11.43;10.33;;;;;;;8.67;100.00;99379.91;5070620;28;20198;-73
2022/04/06 00:27:05;;;;;;;15.07;10.90;;;;;;;8.65;100.00;99374.78;5070564;28;20285;-72
2022/04/06 00:29:30;;;;;;;12.83;11.67;;;;;;;8.61;100.00;99349.34;5070676;28;20228;-73
2022/04/06 00:31:56;;;;;;;15.27;11.57;;;;;;;8.61;100.00;99360.25;5070753;28;20182;-73
2022/04/06 00:35:28;;;;;;;10.53;9.53;;;;;;;8.57;100.00;99344.88;5070680;28;20175;-70
2022/04/06 00:37:07;;;;;;;10.23;4.70;;;;;;;8.55;100.00;99361.56;5070277;28;20265;-73
2022/04/06 00:39:32;;;;;;;9.23;7.57;;;;;;;8.56;100.00;99359.63;5070493;28;20258;-73
2022/04/06 00:41:57;;;;;;;9.50;6.97;;;;;;;8.56;100.00;99365.06;5070531;28;20178;-73
2022/04/06 00:44:23;;;;;;;12.63;11.40;;;;;;;8.54;100.00;99373.56;5070575;28;20201;-73
2022/04/06 00:46:48;;;;;;;6.53;4.50;;;;;;;8.51;100.00;99376.91;5070536;28;20257;-72
2022/04/06 00:49:14;;;;;;;19.10;7.90;;;;;;;8.45;100.00;99364.59;5070503;28;20167;-73
2022/04/06 00:51:47;;;;;;;5.60;5.10;;;;;;;8.39;100.00;99371.34;5070570;28;20259;-73
2022/04/06 00:54:18;;;;;;;7.90;7.10;;;;;;;8.37;100.00;99373.56;5070671;28;20560;-73
2022/04/06 00:56:45;;;;;;;9.63;8.73;;;;;;;8.34;100.00;99379.66;5070528;28;20639;-73
2022/04/06 00:59:11;;;;;;;8.13;7.30;;;;;;;8.29;100.00;99387.97;5070461;28;20236;-73
2022/04/06 01:01:37;;;;;;;9.33;8.30;;;;;;;8.27;100.00;99409.28;5070509;28;20182;-74
2022/04/06 01:04:03;;;;;;;9.13;5.83;;;;;;;8.21;100.00;99380.63;5073565;28;20194;-73
2022/04/06 01:06:29;;;;;;;9.47;7.63;;;;;;;8.14;100.00;99362.06;5074532;28;20190;-73
2022/04/06 01:08:54;;;;;;;7.43;6.73;;;;;;;8.13;100.00;99384.16;5074216;28;20179;-73
2022/04/06 01:11:20;;;;;;;2.60;2.37;;;;;;;8.09;100.00;99378.53;5074184;28;20170;-73
2022/04/06 01:13:47;;;;;;;6.17;5.43;;;;;;;8.07;100.00;99375.34;5074144;28;20170;-74
2022/04/06 01:16:12;;;;;;;10.27;8.73;;;;;;;8.06;100.00;99377.25;5072980;28;20534;-73
2022/04/06 01:18:39;;;;;;;5.90;5.30;;;;;;;8.07;100.00;99388.94;5073884;28;20273;-73
2022/04/06 01:21:05;;;;;;;6.70;6.03;;;;;;;8.14;100.00;99372.16;5074035;28;20174;-72
2022/04/06 01:23:30;;;;;;;9.50;8.10;;;;;;;8.16;100.00;99384.31;5073941;28;20174;-74
2022/04/06 01:25:56;;;;;;;7.83;5.13;;;;;;;8.21;100.00;99375.16;5074012;28;20350;-73
2022/04/06 01:28:21;;;;;;;11.33;6.70;;;;;;;8.28;100.00;99389.91;5073843;28;20531;-73
2022/04/06 01:30:47;;;;;;;8.43;5.20;;;;;;;8.37;100.00;99381.75;5073848;28;20297;-74
2022/04/06 01:33:13;;;;;;;4.57;4.17;;;;;;;8.40;100.00;99394.72;5073892;28;20174;-72
2022/04/06 01:35:41;;;;;;;7.60;3.87;;;;;;;8.46;100.00;99403.50;5073705;28;20185;-72
2022/04/06 01:38:06;;;;;;;19.60;5.20;;;;;;;8.50;100.00;99394.38;5073459;28;20175;-74
2022/04/06 01:40:33;;;;;;;4.10;3.77;;;;;;;8.53;100.00;99401.88;5073736;28;20190;-75
2022/04/06 01:42:58;;;;;;;5.83;5.40;;;;;;;8.56;100.00;99395.81;5073647;28;20618;-73
2022/04/06 01:45:23;;;;;;;14.57;4.33;;;;;;;8.65;100.00;99420.28;5073688;28;20206;-73
2022/04/06 01:47:49;;;;;;;13.63;5.93;;;;;;;8.65;100.00;99412.13;5073387;28;20546;-72
2022/04/06 01:52:58;;;;;;;4.60;4.13;;;;;;;8.61;100.00;99401.06;5073522;28;20173;-73
2022/04/06 01:55:24;;;;;;;6.27;5.70;;;;;;;8.61;100.00;99422.84;5073359;28;20187;-73
2022/04/06 01:57:50;;;;;;;8.57;5.40;;;;;;;8.65;100.00;99414.84;5073288;28;20602;-72
2022/04/06 02:00:17;;;;;;;11.90;6.13;;;;;;;8.65;100.00;99403.94;5073264;28;20256;-73
2022/04/06 02:02:47;;;;;;;7.83;7.23;;;;;;;8.65;100.00;99398.50;5073286;28;20220;-74
2022/04/06 02:05:13;;;;;;;5.50;4.90;;;;;;;8.67;100.00;99390.00;5073496;28;20206;-72
2022/04/06 02:07:39;;;;;;;6.43;5.27;;;;;;;8.69;100.00;99395.94;5073065;28;20174;-73
2022/04/06 02:10:05;;;;;;;9.67;6.30;;;;;;;8.70;100.00;99392.09;5073218;28;20194;-73
2022/04/06 02:12:31;;;;;;;7.57;6.90;;;;;;;8.70;100.00;99398.34;5073024;28;20177;-73
2022/04/06 02:14:57;;;;;;;6.63;6.03;;;;;;;8.70;100.00;99384.72;5072950;28;20217;-73
2022/04/06 02:17:23;;;;;;;9.53;7.70;;;;;;;8.71;100.00;99369.19;5072690;28;20206;-73
2022/04/06 02:19:48;;;;;;;12.70;9.23;;;;;;;8.69;100.00;99395.94;5072924;28;20170;-74
2022/04/06 02:22:14;;;;;;;5.87;5.13;;;;;;;8.70;100.00;99395.63;5072871;28;20190;-73
2022/04/06 02:24:39;;;;;;;8.70;6.63;;;;;;;8.74;100.00;99398.50;5072667;28;20561;-74
2022/04/06 02:27:07;;;;;;;6.73;6.13;;;;;;;8.76;100.00;99394.31;5071295;28;20178;-74
2022/04/06 02:29:32;;;;;;;7.13;6.50;;;;;;;8.75;100.00;99390.00;5072705;28;20186;-74
2022/04/06 02:31:57;;;;;;;6.80;6.20;;;;;;;8.75;100.00;99378.31;5072605;28;20540;-75
2022/04/06 02:34:23;;;;;;;12.47;9.67;;;;;;;8.75;100.00;99370.13;5072595;28;20170;-74
2022/04/06 02:36:48;;;;;;;11.67;10.57;;;;;;;8.78;100.00;99373.00;5072518;28;20205;-74
2022/04/06 02:39:13;;;;;;;19.87;8.00;;;;;;;8.76;100.00;99371.72;5072452;28;20210;-74
2022/04/06 02:41:39;;;;;;;11.37;9.60;;;;;;;8.76;100.00;99350.75;5072530;28;20248;-74
2022/04/06 02:44:05;;;;;;;4.93;4.53;;;;;;;8.77;100.00;99381.50;5072288;28;20201;-74
2022/04/06 02:46:31;;;;;;;11.70;10.67;;;;;;;8.74;100.00;99372.06;5072278;28;20177;-74
2022/04/06 02:48:56;;;;;;;14.97;9.53;;;;;;;8.75;100.00;99370.13;5072276;28;20707;-74
2022/04/06 02:51:22;;;;;;;15.77;12.00;;;;;;;8.73;100.00;99345.94;5072279;28;20695;-74
2022/04/06 02:53:47;;;;;;;14.47;9.57;;;;;;;8.79;100.00;99335.66;5072195;28;20511;-75
2022/04/06 02:56:14;;;;;;;8.53;7.87;;;;;;;8.78;100.00;99332.16;5072199;28;20196;-74
2022/04/06 02:58:40;;;;;;;10.13;9.27;;;;;;;8.76;100.00;99328.16;5071920;28;20540;-74
2022/04/06 03:01:06;;;;;;;9.13;8.30;;;;;;;8.78;100.00;99337.59;5071867;28;20261;-74
2022/04/06 03:03:31;;;;;;;15.20;12.97;;;;;;;8.81;100.00;99336.13;5072178;28;20258;-74
2022/04/06 03:05:56;;;;;;;17.83;9.00;;;;;;;8.86;100.00;99325.88;5072021;28;20209;-74
2022/04/06 03:08:22;;;;;;;10.03;7.87;;;;;;;8.91;100.00;99349.41;5071775;28;20209;-73
2022/04/06 03:10:47;;;;;;;9.87;8.07;;;;;;;8.90;100.00;99334.19;5071879;28;20653;-74
2022/04/06 03:13:13;;;;;;;8.73;7.87;;;;;;;8.86;100.00;99331.31;5071795;28;20684;-74
2022/04/06 03:15:38;;;;;;;9.37;6.90;;;;;;;8.84;100.00;99314.53;5071700;28;20665;-74
2022/04/06 03:18:04;;;;;;;16.30;13.03;;;;;;;8.84;100.00;99324.63;5071611;28;20170;-74
2022/04/06 03:20:30;;;;;;;7.07;6.40;;;;;;;8.85;100.00;99312.59;5071684;28;20186;-73
2022/04/06 03:22:55;;;;;;;8.63;6.23;;;;;;;8.86;100.00;99316.91;5071578;28;20182;-73
2022/04/06 03:25:21;;;;;;;11.77;10.60;;;;;;;8.88;100.00;99320.91;5071002;28;20217;-74
2022/04/06 03:27:47;;;;;;;9.20;7.40;;;;;;;8.86;100.00;99320.44;5071515;28;20224;-73
2022/04/06 03:30:12;;;;;;;12.57;7.10;;;;;;;8.86;100.00;99319.63;5071332;28;20231;-74
2022/04/06 03:32:38;;;;;;;8.50;7.17;;;;;;;8.88;100.00;99307.28;5071447;28;20634;-72
2022/04/06 03:35:05;;;;;;;6.77;6.13;;;;;;;8.87;100.00;99305.69;5071443;28;20174;-74
2022/04/06 03:37:30;;;;;;;6.77;5.37;;;;;;;8.86;100.00;99306.81;5071105;28;20175;-73
2022/04/06 03:39:56;;;;;;;22.63;14.73;;;;;;;8.88;100.00;99521.66;5071168;28;20193;-72
2022/04/06 03:42:21;;;;;;;12.80;11.27;;;;;;;8.89;100.00;99344.28;5071409;28;20691;-73
2022/04/06 03:44:47;;;;;;;5.80;5.10;;;;;;;8.86;100.00;99336.78;5071426;28;20600;-75
2022/04/06 03:47:12;;;;;;;18.67;9.57;;;;;;;8.85;100.00;99307.94;5070967;28;20182;-74
2022/04/06 03:49:37;;;;;;;10.23;7.43;;;;;;;8.87;100.00;99308.41;5071295;28;20228;-74
2022/04/06 03:52:03;;;;;;;10.80;9.13;;;;;;;8.92;100.00;99327.28;5071160;28;20206;-73
2022/04/06 03:54:28;;;;;;;17.37;12.13;;;;;;;8.93;100.00;99323.44;5071113;28;20788;-75
2022/04/06 03:56:54;;;;;;;26.47;14.50;;;;;;;8.93;100.00;99322.63;5070961;28;20178;-74
2022/04/06 03:59:19;;;;;;;8.40;7.10;;;;;;;8.90;100.00;99326.81;5070733;28;20180;-75
2022/04/06 04:01:45;;;;;;;8.90;6.37;;;;;;;8.86;100.00;99325.88;5071087;28;20194;-73
2022/04/06 04:04:10;;;;;;;10.23;6.87;;;;;;;8.85;100.00;99335.19;5070844;28;20206;-75
2022/04/06 04:06:36;;;;;;;11.70;7.17;;;;;;;8.86;100.00;99338.69;5070869;28;20178;-74
2022/04/06 04:09:03;;;;;;;4.37;3.97;;;;;;;8.86;100.00;99334.06;5070866;28;20584;-74
2022/04/06 04:11:28;;;;;;;8.70;7.27;;;;;;;8.83;100.00;99342.09;5071094;28;20182;-74
2022/04/06 04:13:54;;;;;;;9.07;7.50;;;;;;;8.80;100.00;99327.16;5070834;28;20261;-75
2022/04/06 04:16:19;;;;;;;9.63;7.27;;;;;;;8.82;100.00;99345.91;5070898;28;20178;-75
2022/04/06 04:18:44;;;;;;;8.63;6.97;;;;;;;8.79;100.00;99347.38;5070837;28;20224;-74
2022/04/06 04:23:53;;;;;;;4.87;4.47;;;;;;;8.78;100.00;99332.16;5071299;28;20610;-74
2022/04/06 04:26:19;;;;;;;10.60;9.50;;;;;;;8.78;100.00;99334.06;5070829;28;20204;-75
2022/04/06 04:28:44;;;;;;;6.60;5.70;;;;;;;8.76;100.00;99342.56;5070324;28;20182;-74
2022/04/06 04:31:09;;;;;;;7.47;6.87;;;;;;;8.77;100.00;99341.44;5071014;28;20197;-72
2022/04/06 04:33:35;;;;;;;10.20;5.17;;;;;;;8.82;100.00;99340.47;5071009;28;20232;-72
2022/04/06 04:36:00;;;;;;;4.13;3.80;;;;;;;8.82;100.00;99352.16;5072887;28;20171;-72
2022/04/06 04:38:26;;;;;;;6.33;5.73;;;;;;;8.84;100.00;99335.50;5075816;28;20634;-72
2022/04/06 04:40:51;;;;;;;5.13;4.73;;;;;;;8.81;100.00;99338.88;5075544;28;20198;-71
2022/04/06 04:43:17;;;;;;;11.63;10.53;;;;;;;8.78;100.00;99344.97;5074720;28;20366;-71
2022/04/06 04:45:43;;;;;;;6.37;5.73;;;;;;;8.73;100.00;99332.34;5075044;28;20665;-72
2022/04/06 04:48:08;;;;;;;6.10;4.10;;;;;;;8.70;100.00;99334.94;5074607;28;20175;-72
2022/04/06 04:50:34;;;;;;;9.37;4.27;;;;;;;8.66;100.00;99326.59;5074618;28;20182;-71
2022/04/06 04:52:59;;;;;;;8.30;7.40;;;;;;;8.63;100.00;99317.16;5074534;28;20182;-72
2022/04/06 04:55:24;;;;;;;5.00;3.57;;;;;;;8.62;100.00;99314.75;5074583;28;20241;-72
2022/04/06 04:57:49;;;;;;;9.07;3.40;;;;;;;8.61;100.00;99341.19;5074279;28;20547;-72
2022/04/06 05:00:15;;;;;;;5.27;4.77;;;;;;;8.60;100.00;99328.69;5074241;28;20182;-72
2022/04/06 05:02:41;;;;;;;5.87;5.23;;;;;;;8.59;100.00;99335.28;5074570;28;20542;-72
2022/04/06 05:05:08;;;;;;;5.97;4.80;;;;;;;8.58;100.00;99322.78;5074299;28;20291;-71
2022/04/06 05:07:37;;;;;;;3.57;3.37;;;;;;;8.62;100.00;99341.97;5074097;28;20182;-71
2022/04/06 05:10:05;;;;;;;5.70;5.17;;;;;;;8.65;100.00;99333.16;5074226;28;20179;-72
2022/04/06 05:12:31;;;;;;;8.10;5.17;;;;;;;8.62;100.00;99320.19;5074189;28;20664;-74
2022/04/06 05:14:56;;;;;;;5.40;3.60;;;;;;;8.62;100.00;99307.38;5074178;28;20257;-71
2022/04/06 05:17:21;;;;;;;4.73;3.47;;;;;;;8.60;100.00;99322.44;5073852;28;20179;-73
2022/04/06 05:19:47;;;;;;;5.93;4.27;;;;;;;8.59;100.00;99327.09;5074076;28;20236;-72
2022/04/06 05:22:12;;;;;;;8.53;5.13;;;;;;;8.60;100.00;99355.13;5074347;28;20278;-72
2022/04/06 05:24:37;;;;;;;4.77;4.37;;;;;;;8.59;100.00;99331.75;5073840;28;20202;-76
2022/04/06 05:27:03;;;;;;;8.50;7.70;;;;;;;8.59;100.00;99320.84;5073604;28;20257;-73
2022/04/06 05:29:29;;;;;;;13.13;3.93;;;;;;;8.60;100.00;99333.34;5074205;28;20531;-71
2022/04/06 05:31:54;;;;;;;5.57;3.30;;;;;;;8.58;100.00;99332.88;5073846;28;20642;-75
2022/04/06 05:34:20;;;;;;;3.83;3.53;;;;;;;8.63;100.00;99327.25;5072144;28;20178;-73
2022/04/06 05:36:45;;;;;;;12.00;6.30;;;;;;;8.63;100.00;99338.13;5074070;28;20254;-75
2022/04/06 05:39:11;;;;;;;7.60;6.77;;;;;;;8.61;100.00;99335.75;5073475;28;20186;-75
2022/04/06 05:41:36;;;;;;;6.30;4.00;;;;;;;8.63;100.00;99324.53;5073663;28;20601;-73
2022/04/06 05:44:01;;;;;;;3.10;2.67;;;;;;;8.62;100.00;99344.72;5073577;28;20175;-74
2022/04/06 05:46:27;;;;;;;3.53;3.33;;;;;;;8.62;100.00;99337.34;5073499;28;20175;-71
2022/04/06 05:48:53;;;;;;;6.90;3.60;;;;;;;8.62;100.00;99337.34;5071580;28;20175;-72
2022/04/06 05:51:18;;;;;;;8.63;3.47;;;;;;;8.61;100.00;99327.56;5073425;28;20185;-73
2022/04/06 05:53:43;;;;;;;3.07;2.77;;;;;;;8.63;100.00;99333.47;5073370;28;20209;-72
2022/04/06 05:56:09;;;;;;;15.93;8.40;;;;;;;8.64;100.00;99334.28;5073296;28;20179;-73
2022/04/06 05:58:34;;;;;;;5.33;4.87;;;;;;;8.61;100.00;99345.81;5073134;28;20264;-73
2022/04/06 06:00:59;;;;;;;3.60;3.13;;;;;;;8.61;100.00;99343.09;5073241;28;20183;-75
2022/04/06 06:03:25;;;;;;;6.90;5.67;;;;;;;8.63;100.00;99332.69;5073093;28;20174;-75
2022/04/06 06:05:51;;;;;;;8.30;7.50;;;;;;;8.62;100.00;99337.34;5073127;28;20544;-77
2022/04/06 06:08:16;;;;;;;3.77;3.23;;;;;;;8.64;100.00;99350.63;5072876;28;20174;-76
2022/04/06 06:10:41;;;;;;;3.50;2.70;;;;;;;8.64;100.00;99316.03;5071736;28;20643;-73
2022/04/06 06:13:07;;;;;;;9.77;8.07;;;;;;;8.65;100.00;99298.56;5072925;28;20592;-76
2022/04/06 06:15:32;;;;;;;5.30;4.87;;;;;;;8.67;100.00;99286.53;5072947;28;20185;-75
2022/04/06 06:17:57;;;;;;;11.67;10.50;;;;;;;8.69;100.00;99284.31;5072786;28;20205;-73
2022/04/06 06:20:23;;;;;;;11.80;6.90;;;;;;;8.69;100.00;99285.13;5072837;28;20251;-74
2022/04/06 06:22:48;;;;;;;4.27;3.93;;;;;;;8.69;100.00;99278.88;5072844;28;20171;-72
2022/04/06 06:25:13;;;;;;;8.83;6.33;;;;;;;8.68;100.00;99274.53;5072818;28;20680;-72
2022/04/06 06:27:40;;;;;;;12.97;11.27;;;;;;;8.67;99.91;99268.28;5072665;28;20212;-73
2022/04/06 06:30:06;;;;;;;9.60;7.53;;;;;;;8.70;100.00;99266.84;5072803;28;20270;-76
2022/04/06 06:32:32;;;;;;;4.47;4.17;;;;;;;8.71;100.00;99271.16;5072683;28;20167;-75
2022/04/06 06:34:57;;;;;;;4.17;3.70;;;;;;;8.70;99.55;99261.41;5072745;28;20245;-73
2022/04/06 06:37:22;;;;;;;13.10;10.53;;;;;;;8.71;100.00;99268.44;5072296;28;20167;-72
2022/04/06 06:39:49;;;;;;;9.50;6.57;;;;;;;8.70;100.00;99262.19;5070857;28;20194;-72
2022/04/06 06:42:15;;;;;;;6.37;5.77;;;;;;;8.70;100.00;99264.94;5071016;28;20175;-74
2022/04/06 06:44:40;;;;;;;6.83;6.23;;;;;;;8.68;100.00;99261.72;5072260;28;20519;-74
2022/04/06 06:47:06;;;;;;;10.83;9.07;;;;;;;8.69;100.00;99266.06;5072051;28;20274;-73
2022/04/06 06:49:31;;;;;;;7.47;5.83;;;;;;;8.67;100.00;99262.03;5072156;28;20177;-72
2022/04/06 06:51:56;;;;;;;3.47;3.27;;;;;;;8.70;100.00;99251.31;5072151;28;20177;-72
2022/04/06 06:54:22;;;;;;;10.87;4.33;;;;;;;8.71;100.00;99257.56;5071976;28;20214;-72
2022/04/06 06:56:47;;;;;;;3.30;3.00;;;;;;;8.72;100.00;99261.88;5072053;28;20174;-76
2022/04/06 06:59:12;;;;;;;8.20;5.23;;;;;;;8.70;100.00;99259.47;5071788;28;20171;-75
2022/04/06 07:01:38;;;;;;;9.47;6.70;;;;;;;8.70;99.72;99254.03;5071296;28;20166;-75
2022/04/06 07:04:03;;;;;;;4.67;4.27;;;;;;;8.72;98.21;99251.78;5071793;28;20178;-76
2022/04/06 07:06:29;;;;;;;14.53;6.03;;;;;;;8.75;97.87;99253.84;5071830;28;20534;-76
2022/04/06 07:08:54;;;;;;;7.43;4.53;;;;;;;8.75;97.40;99272.91;5071957;28;20206;-76
2022/04/06 07:11:19;;;;;;;7.50;6.83;;;;;;;8.73;97.82;99242.47;5071769;28;20618;-75
2022/04/06 07:13:45;;;;;;;8.00;4.60;;;;;;;8.74;97.05;99254.97;5071624;28;20293;-73
2022/04/06 07:16:11;;;;;;;4.80;3.13;;;;;;;8.77;96.11;99254.31;5071745;28;20538;-76
2022/04/06 07:18:37;;;;;;;13.93;7.37;;;;;;;8.79;95.81;99240.34;5071507;28;20163;-75
2022/04/06 07:21:02;;;;;;;7.53;6.93;;;;;;;8.79;94.65;99232.97;5071869;28;20173;-75
2022/04/06 07:23:28;;;;;;;8.23;7.43;;;;;;;8.82;93.26;99240.50;5071454;28;20229;-73
2022/04/06 07:25:54;;;;;;;11.97;8.10;;;;;;;8.84;93.28;99238.25;5071746;28;20261;-76
2022/04/06 07:28:19;;;;;;;2.93;1.80;;;;;;;8.85;92.11;99223.50;5071544;28;20521;-74
2022/04/06 07:30:44;;;;;;;4.63;4.23;;;;;;;8.87;91.81;99239.53;5071299;28;20186;-75
2022/04/06 07:33:12;;;;;;;6.87;6.37;;;;;;;8.89;91.33;99227.16;5071204;28;20269;-75
2022/04/06 07:35:38;;;;;;;3.50;3.13;;;;;;;8.92;91.34;99226.50;5070991;28;20181;-76
2022/04/06 07:38:04;;;;;;;3.63;3.33;;;;;;;8.90;89.46;99226.03;5070897;28;20170;-73
2022/04/06 07:40:29;;;;;;;4.17;3.77;;;;;;;8.93;88.67;99214.47;5069706;28;20713;-76
2022/04/06 07:42:54;;;;;;;6.63;3.10;;;;;;;8.95;88.59;99216.88;5071017;28;20179;-76
2022/04/06 07:45:21;;;;;;;10.87;2.97;;;;;;;8.99;88.35;99197.97;5070797;28;20259;-74
2022/04/06 07:47:52;;;;;;;2.90;2.70;;;;;;;9.02;88.66;99197.28;5070622;28;20175;-75
2022/04/06 07:50:19;;;;;;;3.10;2.37;;;;;;;9.03;87.90;99183.31;5070822;28;20182;-76
2022/04/06 07:52:45;;;;;;;1.63;1.50;;;;;;;9.06;87.83;99187.31;5069347;28;20235;-75
2022/04/06 07:55:11;;;;;;;2.87;2.67;;;;;;;9.06;87.20;99198.22;5070701;28;20698;-75
2022/04/06 07:57:37;;;;;;;1.83;1.73;;;;;;;9.09;87.37;99203.00;5070436;28;20186;-73
2022/04/06 08:00:06;;;;;;;10.73;4.97;;;;;;;9.09;87.32;99225.59;5070575;28;20175;-75
2022/04/06 08:02:32;;;;;;;5.87;2.53;;;;;;;9.09;87.52;99386.34;5070559;28;20178;-75
2022/04/06 08:04:58;;;;;;;2.53;2.33;;;;;;;9.05;86.45;99388.13;5070545;28;20332;-75
2022/04/06 08:07:23;;;;;;;3.37;1.83;;;;;;;9.04;86.50;99380.28;5070663;28;20649;-75
2022/04/06 08:09:48;;;;;;;5.03;3.53;;;;;;;9.06;86.81;99391.66;5070465;28;20175;-74
2022/04/06 08:12:14;;;;;;;1.93;1.83;;;;;;;9.10;87.41;99382.47;5070027;28;20162;-75
2022/04/06 08:14:39;;;;;;;2.80;2.30;;;;;;;9.10;85.45;99376.22;5070517;28;20178;-75
2022/04/06 08:17:04;;;;;;;3.80;3.50;;;;;;;9.12;85.33;99393.06;5070144;28;20166;-76
2022/04/06 08:19:30;;;;;;;2.07;1.93;;;;;;;9.12;85.19;99393.88;5070347;28;20297;-75
2022/04/06 08:21:56;;;;;;;3.43;3.23;;;;;;;9.15;84.49;99392.41;5070320;28;20178;-75
2022/04/06 08:24:21;;;;;;;4.80;1.57;;;;;;;9.15;84.91;99367.91;5070289;28;20562;-75
2022/04/06 08:26:52;;;;;;;1.40;1.30;;;;;;;9.18;83.80;99378.13;5070208;28;20252;-75
2022/04/06 08:29:17;;;;;;;6.07;4.83;;;;;;;9.15;84.31;99368.69;5070181;28;20175;-75
2022/04/06 08:31:43;;;;;;;7.70;4.97;;;;;;;9.17;84.43;99369.16;5070218;28;20171;-76
2022/04/06 08:34:08;;;;;;;6.23;5.73;;;;;;;9.20;84.04;99365.78;5070233;28;20174;-76
2022/04/06 08:36:34;;;;;;;2.27;1.80;;;;;;;9.20;83.35;99346.69;5069918;28;20253;-75
2022/04/06 08:39:01;;;;;;;2.37;2.17;;;;;;;9.20;84.38;99345.91;5069702;28;20196;-75
2022/04/06 08:41:28;;;;;;;2.93;2.73;;;;;;;9.19;83.21;99314.31;5070026;28;20189;-75
2022/04/06 08:43:54;;;;;;;5.55;4.30;;;;;;;9.19;82.59;99300.69;5070008;28;20166;-76
2022/04/06 08:46:20;;;;;;;5.37;2.73;;;;;;;9.24;82.12;99287.66;5069995;28;20171;-75
2022/04/06 08:48:49;;;;;;;4.80;2.23;;;;;;;9.25;81.41;99296.63;5070064;28;20175;-75
2022/04/06 08:51:19;;;;;;;2.13;1.97;;;;;;;9.26;81.20;99287.38;5070161;28;20412;-75
2022/04/06 08:53:45;;;;;;;5.10;1.10;;;;;;;9.26;79.64;99279.19;5070124;28;20174;-76
2022/04/06 08:56:12;;;;;;;5.13;1.57;;;;;;;9.25;78.61;99283.00;5070084;28;20171;-75
2022/04/06 08:58:38;;;;;;;2.17;1.97;;;;;;;9.25;79.18;99283.00;5069906;28;20216;-75
2022/04/06 09:01:04;;;;;;;8.20;1.37;;;;;;;9.23;79.15;99288.00;5069986;28;20174;-74
2022/04/06 09:03:29;;;;;;;1.27;1.20;;;;;;;9.20;79.68;99272.31;5069932;28;20163;-75
2022/04/06 09:06:08;;;;;;;1.23;1.13;;;;;;;9.24;77.91;99259.63;5069878;28;20574;-76
2022/04/06 09:08:45;;;;;;;3.37;2.37;;;;;;;9.29;78.26;99264.91;5069674;28;20167;-74
2022/04/06 09:11:13;;;;;;;3.17;1.10;;;;;;;9.35;77.72;99281.84;5070063;28;20158;-74
2022/04/06 09:13:41;;;;;;;1.40;1.30;;;;;;;9.37;77.46;99266.75;5069513;28;20626;-74
2022/04/06 09:16:08;;;;;;;1.93;0.63;;;;;;;9.34;77.09;99253.78;5069728;28;20205;-75
2022/04/06 09:18:42;;;;;;;2.57;1.30;;;;;;;9.34;77.86;99258.44;5069642;28;20206;-74
2022/04/06 09:21:09;;;;;;;2.80;2.07;;;;;;;9.36;79.12;99248.00;5069880;28;20171;-76
2022/04/06 09:23:36;;;;;;;1.10;1.07;;;;;;;9.38;79.17;99245.72;5070718;28;20630;-74
2022/04/06 09:26:03;;;;;;;3.37;1.70;;;;;;;9.34;79.15;99244.81;5073773;28;20256;-75
2022/04/06 09:28:29;;;;;;;2.13;1.50;;;;;;;9.33;79.44;99246.75;5073216;28;20249;-75
2022/04/06 09:30:54;;;;;;;1.27;1.17;;;;;;;9.29;79.29;99224.00;5073354;28;20258;-76
2022/04/06 09:33:20;;;;;;;1.83;1.67;;;;;;;9.29;80.46;99190.50;5073473;28;20227;-74
2022/04/06 09:35:46;;;;;;;1.23;1.13;;;;;;;9.31;79.69;99190.97;5073404;28;20674;-75
2022/04/06 09:38:22;;;;;;;2.20;1.33;;;;;;;9.30;79.40;99189.38;5073113;28;20221;-74
2022/04/06 09:41:14;;;;;;;1.70;1.40;;;;;;;9.38;80.31;99202.13;5073625;28;20209;-74
2022/04/06 09:43:40;;;;;;;1.20;1.20;;;;;;;9.47;80.53;99184.56;5073219;28;20185;-74
2022/04/06 09:49:08;;;;;;;1.73;1.23;;;;;;;9.48;79.58;99188.09;5073266;28;20185;-74
2022/04/06 09:51:35;;;;;;;1.43;1.23;;;;;;;9.49;79.04;99182.28;5072934;28;20185;-74
2022/04/06 09:54:05;;;;;;;5.53;2.50;;;;;;;9.56;77.73;99176.31;5073027;28;20174;-75
2022/04/06 09:56:32;;;;;;;6.37;1.57;;;;;;;9.66;77.46;99161.44;5072925;28;20199;-75
2022/04/06 09:58:58;;;;;;;1.50;1.40;;;;;;;9.67;77.94;99253.03;5072732;28;20179;-75
2022/04/06 10:01:29;;;;;;;1.57;1.47;;;;;;;9.70;78.35;99372.38;5072992;28;20179;-75
2022/04/06 10:03:58;;;;;;;8.27;2.70;;;;;;;9.65;78.22;99376.09;5073392;28;20462;-75
2022/04/06 10:06:24;;;;;;;2.50;1.53;;;;;;;9.74;79.21;99365.13;5072900;28;20202;-75
2022/04/06 10:08:51;;;;;;;1.50;1.10;;;;;;;9.80;78.30;99361.06;5072533;28;20178;-75
2022/04/06 10:11:18;;;;;;;2.30;1.10;;;;;;;9.79;78.50;99316.63;5072806;28;20216;-75
2022/04/06 10:13:44;;;;;;;2.40;1.20;;;;;;;9.86;79.20;98904.19;5072768;28;20260;-75
2022/04/06 10:16:12;;;;;;;1.57;1.47;;;;;;;9.82;78.83;99309.69;5072731;28;20275;-75
2022/04/06 10:18:38;;;;;;;2.70;1.60;;;;;;;9.71;78.45;99344.78;5072274;28;20170;-73
2022/04/06 10:21:12;;;;;;;2.20;1.67;;;;;;;9.73;79.42;99355.34;5072543;28;20171;-74
2022/04/06 10:24:09;;;;;;;7.70;1.50;;;;;;;9.74;80.07;99281.38;5072355;28;20247;-74
2022/04/06 10:27:05;;;;;;;0.63;0.57;;;;;;;9.71;79.91;99230.22;5064639;28;20201;-76
2022/04/06 10:29:30;;;;;;;1.23;1.13;;;;;;;9.64;79.17;99205.41;5072302;28;20253;-74
2022/04/06 10:31:56;;;;;;;2.57;1.10;;;;;;;9.57;80.07;99228.91;5072530;28;20197;-75
2022/04/06 10:34:32;;;;;;;2.53;1.47;;;;;;;9.59;80.47;99219.25;5072308;28;20288;-75
2022/04/06 10:37:11;;;;;;;1.80;1.43;;;;;;;9.56;81.39;99221.88;5072219;28;20170;-75
2022/04/06 10:40:03;;;;;;;2.17;1.83;;;;;;;9.46;81.62;99217.63;5072058;28;20198;-74
2022/04/06 10:42:31;;;;;;;1.63;1.53;;;;;;;9.43;81.68;99202.72;5069871;28;20257;-73
2022/04/06 10:44:56;;;;;;;1.30;1.27;;;;;;;9.46;82.35;99223.06;5072032;28;20202;-75
2022/04/06 10:47:22;;;;;;;2.10;1.00;;;;;;;9.45;82.73;99205.91;5071825;28;20186;-76
2022/04/06 10:50:20;;;;;;;2.93;1.63;;;;;;;9.57;81.72;99180.63;5071886;28;20170;-74
2022/04/06 10:52:45;;;;;;;2.77;1.87;;;;;;;9.56;80.91;99167.34;5071891;28;20592;-75
2022/04/06 10:55:23;;;;;;;1.60;1.50;;;;;;;9.62;81.16;99165.97;5071949;28;20181;-75
2022/04/06 10:58:03;;;;;;;2.53;2.23;;;;;;;9.57;80.72;99188.03;5071526;28;20174;-74
2022/04/06 11:00:30;;;;;;;1.67;1.30;;;;;;;9.60;81.67;99181.88;5071664;28;20170;-74
2022/04/06 11:03:19;;;;;;;2.83;1.13;;;;;;;9.66;81.13;99170.41;5071753;28;20167;-74
2022/04/06 11:05:50;;;;;;;1.30;1.20;;;;;;;9.62;80.89;99157.81;5071713;28;20271;-75
2022/04/06 11:11:47;;;;;;;1.37;1.27;;;;;;;9.53;81.05;99158.69;5071593;28;20244;-74
2022/04/06 11:14:25;;;;;;;2.07;1.87;;;;;;;9.52;81.26;99156.28;5071989;28;20174;-74
2022/04/06 11:16:52;;;;;;;1.17;1.13;;;;;;;9.51;81.60;99165.59;5071356;28;20269;-75
2022/04/06 11:19:17;;;;;;;2.60;1.97;;;;;;;9.46;81.42;99163.09;5069901;28;20179;-75
2022/04/06 11:21:51;;;;;;;3.80;2.30;;;;;;;9.40;81.59;99167.97;5070197;28;20293;-75
2022/04/06 11:24:24;;;;;;;1.07;1.07;;;;;;;9.33;81.54;99156.00;5069972;28;20171;-75
2022/04/06 11:26:51;;;;;;;1.27;1.20;;;;;;;9.34;81.75;99165.78;5069620;28;20401;-75
2022/04/06 11:29:17;;;;;;;0.83;0.83;;;;;;;9.31;81.92;99167.25;5071024;28;20630;-75
2022/04/06 11:32:00;;;;;;;3.33;1.17;;;;;;;9.35;82.60;99181.00;5071072;28;20217;-75
2022/04/06 11:34:35;;;;;;;1.50;1.33;;;;;;;9.38;82.76;99123.88;5071123;28;20174;-74
2022/04/06 11:37:02;;;;;;;1.83;1.73;;;;;;;9.41;82.73;99139.56;5070858;28;20171;-74
2022/04/06 11:39:29;;;;;;;1.80;1.40;;;;;;;9.37;82.20;99138.63;5070861;28;20186;-72
2022/04/06 11:41:54;;;;;;;1.00;0.97;;;;;;;9.37;83.25;99133.19;5070927;28;20167;-74
2022/04/06 11:44:21;;;;;;;2.17;1.97;;;;;;;9.35;83.80;99135.44;5070798;28;20194;-72